Observations for BOSCOMBE DOWN, United Kingdom (EGDM)

EGDM 220450Z AUTO 15006KT 1200 VV/// 16/16 Q1020
EGDM 220350Z AUTO 14005KT 0150 FG VV/// 16/16 Q1020 
EGDM 220250Z AUTO 15005KT 0150 FG VV/// 16/16 Q1020 
EGDM 220150Z AUTO 12003KT 0150 FG VV/// 16/16 Q1020 
EGDM 220050Z AUTO 13004KT 0150 FG VV/// 16/16 Q1020 
EGDM 212350Z AUTO 12005KT 5000 BR FEW027/// 16/16 Q1020 
EGDM 212250Z AUTO 13004KT 9999 FEW008/// BKN027/// BKN050/// 18/17 Q1020
EGDM 212150Z AUTO 17003KT 9999 BKN050/// 18/17 Q1021
EGDM 212050Z AUTO 18004KT 9999 BKN048/// 19/18 Q1021
EGDM 211950Z AUTO 16004KT 9999 BKN024/// 20/18 Q1020 RERA   
EGDM 211850Z AUTO 15003KT 9999 BKN025/// BKN038/// 20/18 Q1020  
EGDM 211750Z AUTO 17005KT 9999 BKN037/// 20/18 Q1020
EGDM 211650Z 10002KT 9999 FEW023 BKN032 BKN045 22/17 Q1020 BLU  
EGDM 211550Z 36003KT 9999 BKN026 OVC034 22/17 Q1020 BLU NOSIG   
EGDM 211450Z 30003KT 9999 FEW024 BKN036 23/17 Q1020 BLU NOSIG   
EGDM 211350Z 31007KT 9999 FEW022 BKN034 22/17 Q1021 BLU NOSIG   
EGDM 211316Z 33006KT 9999 FEW014 SCT034 22/17 Q1021 BLU TEMPO SCT016 WHT
EGDM 211316Z 33006KT 9999 FEW014 SCT034 22/17 Q1021 BLU TEMPO SCT016 WHT
EGDM 211250Z 32007KT 9999 SCT012 OVC034 21/18 Q1021 GRN BECMG SCT015 WHT
EGDM 211239Z 31007KT 9999 FEW012 BKN015 BKN033 21/18 Q1021 WHT TEMPO SCT012 GRN 
EGDM 211239Z 31007KT 9999 FEW012 BKN015 BKN033 21/18 Q1021 WHT TEMPO SCT012 GRN
EGDM 211150Z 31010KT 9999 FEW006 BKN009 BKN020 19/18 Q1021 REDZ GRN NOSIG   
EGDM 211140Z 30009KT 9999 FEW004 BKN006 BKN020 19/18 Q1021 REDZ YLO1 BECMG BKN010 GRN   
EGDM 211140Z 30009KT 9999 FEW004 BKN006 BKN020 19/18 Q1021 YLO1 BECMG BKN010 GRN
EGDM 211140Z 30009KT 9999 FEW004 BKN006 BKN020 19/18 Q1021 REDZ YLO1 BECMG BKN010 GRN
EGDM 211124Z 31006KT 9999 5000SE -DZ OVC003 18/18 Q1021 YLO2 BECMG 9999 NSW BKN005 YLO1 
EGDM 211124Z 31006KT 9999 5000SE -DZ OVC003 18/18 Q1021 YLO2 BECMG 9999 NSW BKN005 YLO1
EGDM 211102Z 29007KT 3000 DZ BKN003 OVC014 19/18 Q1021 YLO2 BECMG 9999 NSW BKN005 YOL1
EGDM 211050Z 30007KT 5000 -DZ BKN003 OVC010 19/18 Q1021 YLO2 BECMG 9999 NSW BKN005 YLO1 
EGDM 211031Z 28005KT 4000 -DZ BKN003 OVC009 18/18 Q1021 YLO2 TEMPO 3000 DZ YLO2 
EGDM 211031Z 28005KT 4000 -DZ BKN003 OVC009 18/18 Q1021 YLO2 TEMPO 3000 DZ YLO2
EGDM 211012Z 28003KT 3000 DZ BKN003 OVC012 18/18 Q1021 YLO2 TEMPO 5000 -DZ YLO2 
EGDM 211012Z 28003KT 3000 DZ BKN003 OVC012 18/18 Q1021 YLO2 TEMPO 5000 -DZ YLO2
EGDM 210950Z 30004KT 4000 -DZ BKN003 OVC008 18/18 Q1021 YLO2 BECMG 9999 NSW BKN005 YLO1
EGDM 210945Z 30004KT 3000 DZ BKN003 OVC009 18/17 Q1021 YLO2 BECMG 9999 NSW BKN005 YLO1  
EGDM 210922Z 29005KT 5000 -DZ BKN003 OVC008 18/18 Q1021 YLO2 TEMPO 3500 DZ YLO2 
EGDM 210922Z 29005KT 5000 -DZ BKN003 OVC008 18/18 Q1021 YLO2 TEMPO 3500 DZ YLO2
EGDM 210945Z 30004KT 3000 DZ BKN003 OVC009 18/17 Q1021 YLO2 BECMG 9999 NSW BKN005 YLO1
EGDM 210850Z 28006KT 4000 -DZ BKN003 OVC010 18/18 Q1021 YLO2 TEMPO 3000 DZ YLO2 
EGDM 210805Z 27005KT 5000 -DZ BKN003 OVC009 17/17 Q1021 YLO2 BECMG 9999 NSW YLO1
EGDM 210810Z 27005KT 3700 DZ OVC003 17/17 Q1021 YLO2 BECMG 9999 NSW BKN005 YLO1
EGDM 210814Z 27006KT 2000 DZ OVC003 17/17 Q1021 YLO2 BECMG 9999 NSW BKN005 YLO1
EGDM 210805Z 27005KT 5000 -DZ BKN003 OVC009 17/17 Q1021 YLO2 BECMG 9999 NSW YLO1
EGDM 210750Z 27004KT 9999 -DZ BKN004 OVC015 17/17 Q1021 YLO2 BECMG BKN005 YLO1  
EGDM 210725Z 26005KT 9999 BKN002 OVC015 17/17 Q1021 AMB BECMG BKN005 YLO1   
EGDM 210725Z 26005KT 9999 BKN002 OVC015 17/17 Q1021 AMB BECMG BKN005 YLO1
EGDM 210650Z 27005KT 5000 BR BKN002 OVC015 17/17 Q1020 AMB BECMG BKN004 YLO2
EGDM 210538Z 26004KT 3700 BR OVC002 16/16 Q1020 AMB 
EGDM 210538Z 26004KT 3700 BR OVC002 16/16 Q1020 AMB
EGDM 210450Z AUTO 23004KT 2000 OVC003/// 16/16 Q1020